createdAt,value
2019-04-07T00:00:16.481Z,55.4
2019-04-07T00:03:15.305Z,55.3
2019-04-07T00:06:15.691Z,55.7
2019-04-07T00:09:15.369Z,56.1
2019-04-07T00:12:15.139Z,56.0
2019-04-07T00:15:15.504Z,56.2
2019-04-07T00:18:15.460Z,55.5
2019-04-07T00:21:15.278Z,56.1
2019-04-07T00:24:15.798Z,56.2
2019-04-07T00:27:15.063Z,56.1
2019-04-07T00:30:15.829Z,56.1
2019-04-07T00:33:15.863Z,56.0
2019-04-07T00:36:15.511Z,56.0
2019-04-07T00:39:15.305Z,56.0
2019-04-07T00:42:15.539Z,55.7
2019-04-07T00:45:16.347Z,55.8
2019-04-07T00:48:15.682Z,56.1
2019-04-07T00:51:15.611Z,55.8
2019-04-07T00:54:15.336Z,55.6
2019-04-07T00:57:16.392Z,55.9
2019-04-07T01:00:16.583Z,55.8
2019-04-07T01:03:15.830Z,56.1
2019-04-07T01:06:15.725Z,56.2
2019-04-07T01:09:15.680Z,56.0
2019-04-07T01:12:15.775Z,55.8
2019-04-07T01:15:15.827Z,56.0
2019-04-07T01:18:15.408Z,55.9
2019-04-07T01:21:15.950Z,56.1
2019-04-07T01:24:15.621Z,55.8
2019-04-07T01:27:15.747Z,56.1
2019-04-07T01:30:16.070Z,56.2
2019-04-07T01:33:16.287Z,56.1
2019-04-07T01:36:16.085Z,56.1
2019-04-07T01:39:16.120Z,56.1
2019-04-07T01:42:15.497Z,56.2
2019-04-07T01:45:15.506Z,56.4
2019-04-07T01:48:15.265Z,56.4
2019-04-07T01:51:15.752Z,56.7
2019-04-07T01:54:15.639Z,56.7
2019-04-07T01:57:15.825Z,56.7
2019-04-07T02:00:15.073Z,56.8
2019-04-07T02:03:15.567Z,56.8
2019-04-07T02:06:15.561Z,56.7
2019-04-07T02:09:15.134Z,57.0
2019-04-07T02:12:15.752Z,56.7
2019-04-07T02:15:16.380Z,57.0
2019-04-07T02:18:15.597Z,56.9
2019-04-07T02:21:15.471Z,56.7
2019-04-07T02:24:15.780Z,56.8
2019-04-07T02:27:16.458Z,56.8
2019-04-07T02:30:16.079Z,57.0
2019-04-07T02:33:15.482Z,56.8
2019-04-07T02:36:22.819Z,57.0
2019-04-07T02:39:15.289Z,57.1
2019-04-07T02:42:15.335Z,57.3
2019-04-07T02:45:15.123Z,57.2
2019-04-07T02:48:15.528Z,57.2
2019-04-07T02:51:15.693Z,57.4
2019-04-07T02:54:15.642Z,57.3
2019-04-07T02:57:15.216Z,57.5
2019-04-07T03:00:15.998Z,57.8
2019-04-07T03:03:16.972Z,58.0
2019-04-07T03:06:32.469Z,57.5
2019-04-07T03:09:15.432Z,57.4
2019-04-07T03:12:15.275Z,57.6
2019-04-07T03:15:15.022Z,57.7
2019-04-07T03:18:16.324Z,58.1
2019-04-07T03:21:15.747Z,57.7
2019-04-07T03:24:15.157Z,58.0
2019-04-07T03:27:15.813Z,58.1
2019-04-07T03:30:15.554Z,57.8
2019-04-07T03:33:19.291Z,57.9
2019-04-07T03:36:20.061Z,57.9
2019-04-07T03:39:15.879Z,57.9
2019-04-07T03:42:15.834Z,57.8
2019-04-07T03:45:15.736Z,58.0
2019-04-07T03:48:15.806Z,58.4
2019-04-07T03:51:15.721Z,57.8
2019-04-07T03:54:15.419Z,58.0
2019-04-07T03:57:16.565Z,58.0
2019-04-07T04:00:15.629Z,57.9
2019-04-07T04:03:15.816Z,57.9
2019-04-07T04:06:15.327Z,58.0
2019-04-07T04:09:15.585Z,57.6
2019-04-07T04:12:15.208Z,57.6
2019-04-07T04:15:15.198Z,57.6
2019-04-07T04:18:16.223Z,57.6
2019-04-07T04:21:15.417Z,57.5
2019-04-07T04:24:16.618Z,57.6
2019-04-07T04:27:15.292Z,57.5
2019-04-07T04:30:15.662Z,57.5
2019-04-07T04:33:15.906Z,57.3
2019-04-07T04:36:15.577Z,57.3
2019-04-07T04:39:19.482Z,57.3
2019-04-07T04:42:16.179Z,57.3
2019-04-07T04:45:15.855Z,57.2
2019-04-07T04:48:15.626Z,57.1
2019-04-07T04:51:16.284Z,57.0
2019-04-07T04:54:15.319Z,55.9
2019-04-07T04:57:15.096Z,56.5
2019-04-07T05:00:15.907Z,56.9
2019-04-07T05:03:15.986Z,56.9
2019-04-07T05:06:15.881Z,56.8
2019-04-07T05:09:15.277Z,56.6
2019-04-07T05:12:16.187Z,56.7
2019-04-07T05:15:15.498Z,56.4
2019-04-07T05:18:16.589Z,55.7
2019-04-07T05:21:16.046Z,54.9
2019-04-07T05:24:15.962Z,53.9
2019-04-07T05:27:15.327Z,53.0
2019-04-07T05:30:15.880Z,51.7
2019-04-07T05:33:16.573Z,51.3
2019-04-07T05:36:15.842Z,50.4
2019-04-07T05:39:16.529Z,48.5
2019-04-07T05:42:15.755Z,47.1
2019-04-07T05:45:15.062Z,46.3
2019-04-07T05:48:19.567Z,45.0
2019-04-07T05:51:15.381Z,43.6
2019-04-07T05:54:17.330Z,42.4
2019-04-07T05:57:15.045Z,42.6
2019-04-07T06:00:16.627Z,41.3
2019-04-07T06:03:15.411Z,39.6
2019-04-07T06:06:15.768Z,39.3
2019-04-07T06:09:15.860Z,38.0
2019-04-07T06:12:16.102Z,36.1
2019-04-07T06:15:20.244Z,35.3
2019-04-07T06:18:15.586Z,34.7
2019-04-07T06:21:16.157Z,35.3
2019-04-07T06:24:22.301Z,35.8
2019-04-07T06:27:17.002Z,36.5
2019-04-07T06:30:16.557Z,37.2
2019-04-07T06:33:15.621Z,38.6
2019-04-07T06:36:19.454Z,38.4
2019-04-07T06:39:17.166Z,39.7
2019-04-07T06:42:15.776Z,39.9
2019-04-07T06:45:16.245Z,40.1
2019-04-07T06:48:16.470Z,39.7
2019-04-07T06:51:16.092Z,39.8
2019-04-07T06:54:18.567Z,39.5
2019-04-07T06:57:15.170Z,39.0
2019-04-07T07:00:17.212Z,38.5
2019-04-07T07:03:15.816Z,38.1
2019-04-07T07:06:17.382Z,38.2
2019-04-07T07:09:15.712Z,38.3
2019-04-07T07:12:22.711Z,37.6
2019-04-07T07:15:15.380Z,37.0
2019-04-07T07:18:15.443Z,36.0
2019-04-07T07:21:15.496Z,36.5
2019-04-07T07:24:18.428Z,36.1
2019-04-07T07:27:15.502Z,35.9
2019-04-07T07:30:17.744Z,35.1
2019-04-07T07:33:15.421Z,33.5
2019-04-07T07:36:18.340Z,32.5
2019-04-07T07:39:15.539Z,32.1
2019-04-07T07:42:15.259Z,31.7
2019-04-07T07:45:15.635Z,31.4
2019-04-07T07:48:16.365Z,30.1
2019-04-07T07:51:16.444Z,29.0
2019-04-07T07:54:16.220Z,28.0
2019-04-07T07:57:16.091Z,27.8
2019-04-07T08:00:16.022Z,27.9
2019-04-07T08:03:15.013Z,28.2
2019-04-07T08:06:16.126Z,27.8
2019-04-07T08:09:23.647Z,27.8
2019-04-07T08:12:16.331Z,26.7
2019-04-07T08:15:15.003Z,25.6
2019-04-07T08:18:15.731Z,25.5
2019-04-07T08:21:18.493Z,25.2
2019-04-07T08:24:17.664Z,24.7
2019-04-07T08:27:16.257Z,23.8
2019-04-07T08:30:16.254Z,24.3
2019-04-07T08:33:15.864Z,24.5
2019-04-07T08:36:15.554Z,24.0
2019-04-07T08:39:23.002Z,24.4
2019-04-07T08:42:18.548Z,23.2
2019-04-07T08:45:15.546Z,22.3
2019-04-07T08:48:18.258Z,22.7
2019-04-07T08:51:15.729Z,23.3
2019-04-07T08:54:16.847Z,23.7
2019-04-07T08:57:16.311Z,22.5
2019-04-07T09:00:17.453Z,22.2
2019-04-07T09:03:16.057Z,21.6
2019-04-07T09:06:16.310Z,21.6
2019-04-07T09:09:15.728Z,21.8
2019-04-07T09:12:15.751Z,21.4
2019-04-07T09:15:15.511Z,20.5
2019-04-07T09:18:17.132Z,20.8
2019-04-07T09:21:16.310Z,19.3
2019-04-07T09:24:16.350Z,19.9
2019-04-07T09:27:19.422Z,18.6
2019-04-07T09:30:16.341Z,19.1
2019-04-07T09:33:15.987Z,18.9
2019-04-07T09:36:15.530Z,18.2
2019-04-07T09:39:15.603Z,16.5
2019-04-07T09:42:15.947Z,16.4
2019-04-07T09:45:15.501Z,15.2
2019-04-07T09:48:19.311Z,16.1
2019-04-07T09:51:16.479Z,15.8
2019-04-07T09:54:17.446Z,15.2
2019-04-07T09:57:15.753Z,15.2
2019-04-07T10:00:15.997Z,15.4
2019-04-07T10:03:16.100Z,15.7
2019-04-07T10:06:15.366Z,15.7
2019-04-07T10:09:16.063Z,15.4
2019-04-07T10:12:15.189Z,14.6
2019-04-07T10:15:16.513Z,14.9
2019-04-07T10:18:16.797Z,15.5
2019-04-07T10:21:15.643Z,15.6
2019-04-07T10:24:15.287Z,15.7
2019-04-07T10:27:17.637Z,16.1
2019-04-07T10:30:16.133Z,16.0
2019-04-07T10:33:15.844Z,16.1
2019-04-07T10:36:15.923Z,15.6
2019-04-07T10:39:15.177Z,15.6
2019-04-07T10:42:15.745Z,15.5
2019-04-07T10:45:15.322Z,15.1
2019-04-07T10:48:15.709Z,15.3
2019-04-07T10:51:15.246Z,15.4
2019-04-07T10:54:15.858Z,15.2
2019-04-07T10:57:15.600Z,15.3
2019-04-07T11:00:15.777Z,14.9
2019-04-07T11:03:16.422Z,15.2
2019-04-07T11:06:16.666Z,15.3
2019-04-07T11:09:15.605Z,15.0
2019-04-07T11:12:15.495Z,15.7
2019-04-07T11:15:15.840Z,15.9
2019-04-07T11:18:16.498Z,17.7
2019-04-07T11:21:16.484Z,18.7
2019-04-07T11:24:15.537Z,18.8
2019-04-07T11:27:15.194Z,19.1
2019-04-07T11:30:15.764Z,18.9
2019-04-07T11:33:15.092Z,18.4
2019-04-07T11:36:17.990Z,17.3
2019-04-07T11:39:15.428Z,17.0
2019-04-07T11:42:16.379Z,17.9
2019-04-07T11:45:15.969Z,18.7
2019-04-07T11:48:15.667Z,19.6
2019-04-07T11:51:15.728Z,20.7
2019-04-07T11:54:15.347Z,21.3
2019-04-07T11:57:15.662Z,22.0
2019-04-07T12:00:16.046Z,22.4
2019-04-07T12:03:16.018Z,22.8
2019-04-07T12:06:16.864Z,23.7
2019-04-07T12:09:16.275Z,24.1
2019-04-07T12:12:15.890Z,24.0
2019-04-07T12:15:15.154Z,24.4
2019-04-07T12:18:17.872Z,24.4
2019-04-07T12:21:21.754Z,24.9
2019-04-07T12:24:15.591Z,24.9
2019-04-07T12:27:16.180Z,24.0
2019-04-07T12:30:15.533Z,23.6
2019-04-07T12:33:15.692Z,24.0
2019-04-07T12:36:15.415Z,23.5
2019-04-07T12:39:18.573Z,23.5
2019-04-07T12:42:15.715Z,23.8
2019-04-07T12:45:15.457Z,24.0
2019-04-07T12:48:15.794Z,24.4
2019-04-07T12:51:17.631Z,24.1
2019-04-07T12:54:15.840Z,23.6
2019-04-07T12:57:15.133Z,23.8
2019-04-07T13:00:15.766Z,23.4
2019-04-07T13:03:15.332Z,23.5
2019-04-07T13:06:15.681Z,23.6
2019-04-07T13:09:16.045Z,23.3
2019-04-07T13:12:20.431Z,23.3
2019-04-07T13:15:15.888Z,23.2
2019-04-07T13:18:15.569Z,22.8
2019-04-07T13:21:16.548Z,23.0
2019-04-07T13:24:28.403Z,22.8
2019-04-07T13:27:15.614Z,23.1
2019-04-07T13:30:15.454Z,22.9
2019-04-07T13:33:16.432Z,23.7
2019-04-07T13:36:16.046Z,23.4
2019-04-07T13:39:15.283Z,22.9
2019-04-07T13:42:16.494Z,22.7
2019-04-07T13:45:16.427Z,22.7
2019-04-07T13:48:18.430Z,22.4
2019-04-07T13:51:15.499Z,22.5
2019-04-07T13:54:16.036Z,22.1
2019-04-07T13:57:15.672Z,21.8
2019-04-07T14:00:16.993Z,22.6
2019-04-07T14:03:15.602Z,22.7
2019-04-07T14:06:15.105Z,22.2
2019-04-07T14:09:15.854Z,22.3
2019-04-07T14:12:15.620Z,23.0
2019-04-07T14:15:15.879Z,23.2
2019-04-07T14:18:15.590Z,23.8
2019-04-07T14:21:15.749Z,23.4
2019-04-07T14:24:16.488Z,23.5
2019-04-07T14:27:15.777Z,23.3
2019-04-07T14:30:15.260Z,23.4
2019-04-07T14:33:15.482Z,23.0
2019-04-07T14:36:16.126Z,23.3
2019-04-07T14:39:16.628Z,23.2
2019-04-07T14:42:15.687Z,24.0
2019-04-07T14:45:15.680Z,23.9
2019-04-07T14:48:15.124Z,23.6
2019-04-07T14:51:16.276Z,23.8
2019-04-07T14:54:16.371Z,23.7
2019-04-07T14:57:16.894Z,24.0
2019-04-07T15:00:15.336Z,23.2
2019-04-07T15:03:15.844Z,23.1
2019-04-07T15:06:16.477Z,22.7
2019-04-07T15:09:15.290Z,22.9
2019-04-07T15:12:20.384Z,23.5
2019-04-07T15:15:15.972Z,24.0
2019-04-07T15:18:15.092Z,24.1
2019-04-07T15:21:15.642Z,24.5
2019-04-07T15:24:15.305Z,24.4
2019-04-07T15:27:15.547Z,24.5
2019-04-07T15:30:15.794Z,24.8
2019-04-07T15:33:15.852Z,24.9
2019-04-07T15:36:17.430Z,25.0
2019-04-07T15:39:16.225Z,25.3
2019-04-07T15:42:25.453Z,25.4
2019-04-07T15:45:15.152Z,25.6
2019-04-07T15:48:15.492Z,25.8
2019-04-07T15:51:15.137Z,26.0
2019-04-07T15:54:20.222Z,26.0
2019-04-07T15:57:19.720Z,26.1
2019-04-07T16:00:16.430Z,25.9
2019-04-07T16:03:15.665Z,25.9
2019-04-07T16:06:16.366Z,25.8
2019-04-07T16:09:29.655Z,25.9
2019-04-07T16:12:15.077Z,26.0
2019-04-07T16:15:16.525Z,26.2
2019-04-07T16:18:15.438Z,26.6
2019-04-07T16:24:15.073Z,26.2
2019-04-07T16:27:15.155Z,26.8
2019-04-07T16:30:18.010Z,26.2
2019-04-07T16:33:16.332Z,26.4
2019-04-07T16:36:15.412Z,26.4
2019-04-07T16:39:15.871Z,26.7
2019-04-07T16:42:15.925Z,26.7
2019-04-07T16:45:17.775Z,27.1
2019-04-07T16:48:16.129Z,27.0
2019-04-07T16:51:15.880Z,27.3
2019-04-07T16:54:16.393Z,27.4
2019-04-07T16:57:15.432Z,27.4
2019-04-07T17:00:16.397Z,27.6
2019-04-07T17:03:15.518Z,27.5
2019-04-07T17:06:15.910Z,27.3
2019-04-07T17:09:15.446Z,27.8
2019-04-07T17:12:16.879Z,27.7
2019-04-07T17:15:15.682Z,27.7
2019-04-07T17:18:16.218Z,27.8
2019-04-07T17:21:15.950Z,28.1
2019-04-07T17:24:15.538Z,28.1
2019-04-07T17:27:16.118Z,28.3
2019-04-07T17:30:15.100Z,28.6
2019-04-07T17:33:15.840Z,28.8
2019-04-07T17:36:18.344Z,29.0
2019-04-07T17:39:15.640Z,29.1
2019-04-07T17:42:15.634Z,29.5
2019-04-07T17:45:16.277Z,29.3
2019-04-07T17:48:15.223Z,29.6
2019-04-07T17:51:15.524Z,29.6
2019-04-07T17:54:19.483Z,29.8
2019-04-07T17:57:16.396Z,30.1
2019-04-07T18:00:18.027Z,29.9
2019-04-07T18:03:15.586Z,29.9
2019-04-07T18:06:16.726Z,30.3
2019-04-07T18:09:18.033Z,30.4
2019-04-07T18:12:15.720Z,30.4
2019-04-07T18:15:17.503Z,30.1
2019-04-07T18:18:18.789Z,30.5
2019-04-07T18:21:17.578Z,31.2
2019-04-07T18:24:15.674Z,31.3
2019-04-07T18:27:17.839Z,32.3
2019-04-07T18:30:16.314Z,31.9
2019-04-07T18:33:17.580Z,31.7
2019-04-07T18:36:15.763Z,31.8
2019-04-07T18:39:17.448Z,33.7
2019-04-07T18:42:17.548Z,34.4
2019-04-07T18:45:16.015Z,33.2
2019-04-07T18:48:15.298Z,33.9
2019-04-07T18:51:15.955Z,33.5
2019-04-07T18:54:15.989Z,34.1
2019-04-07T18:57:15.432Z,34.4
2019-04-07T19:00:15.679Z,34.4
2019-04-07T19:03:18.117Z,34.3
2019-04-07T19:06:16.555Z,34.2
2019-04-07T19:09:15.562Z,34.4
2019-04-07T19:12:18.904Z,34.4
2019-04-07T19:15:15.974Z,34.8
2019-04-07T19:18:16.139Z,35.0
2019-04-07T19:21:16.210Z,35.2
2019-04-07T19:24:16.421Z,35.6
2019-04-07T19:27:18.180Z,35.9
2019-04-07T19:30:15.419Z,35.7
2019-04-07T19:33:15.240Z,36.1
2019-04-07T19:36:18.068Z,35.6
2019-04-07T19:39:18.733Z,35.8
2019-04-07T19:42:15.043Z,35.3
2019-04-07T19:45:15.543Z,35.6
2019-04-07T19:48:15.571Z,36.6
2019-04-07T19:51:15.547Z,36.5
2019-04-07T19:54:17.627Z,36.0
2019-04-07T19:57:15.438Z,36.8
2019-04-07T20:00:21.569Z,36.7
2019-04-07T20:03:15.908Z,37.0
2019-04-07T20:06:15.508Z,37.5
2019-04-07T20:09:15.455Z,37.6
2019-04-07T20:12:15.185Z,38.1
2019-04-07T20:15:17.583Z,37.9
2019-04-07T20:18:16.613Z,37.4
2019-04-07T20:21:17.427Z,38.2
2019-04-07T20:24:15.256Z,37.9
2019-04-07T20:27:15.364Z,37.9
2019-04-07T20:30:16.652Z,38.3
2019-04-07T20:33:16.383Z,38.2
2019-04-07T20:36:22.142Z,38.3
2019-04-07T20:39:15.171Z,38.5
2019-04-07T20:42:17.121Z,38.8
2019-04-07T20:45:19.228Z,38.4
2019-04-07T20:48:15.532Z,39.5
2019-04-07T20:51:17.697Z,40.1
2019-04-07T20:54:15.310Z,42.0
2019-04-07T20:57:19.264Z,40.2
2019-04-07T21:00:16.534Z,41.1
2019-04-07T21:03:21.482Z,42.9
2019-04-07T21:06:14.963Z,43.2
2019-04-07T21:09:15.897Z,43.6
2019-04-07T21:12:15.964Z,42.9
2019-04-07T21:15:18.193Z,44.7
2019-04-07T21:18:15.823Z,43.7
2019-04-07T21:21:15.087Z,43.1
2019-04-07T21:24:18.826Z,44.5
2019-04-07T21:27:16.348Z,43.7
2019-04-07T21:30:15.934Z,44.3
2019-04-07T21:33:15.477Z,44.6
2019-04-07T21:36:16.307Z,45.2
2019-04-07T21:39:16.224Z,45.0
2019-04-07T21:42:18.609Z,45.8
2019-04-07T21:45:14.986Z,45.5
2019-04-07T21:48:15.788Z,46.1
2019-04-07T21:51:16.657Z,46.8
2019-04-07T21:54:15.994Z,46.0
2019-04-07T21:57:15.177Z,48.9
2019-04-07T22:00:15.431Z,47.8
2019-04-07T22:03:17.066Z,46.6
2019-04-07T22:06:15.029Z,46.6
2019-04-07T22:09:16.804Z,46.2
2019-04-07T22:12:15.347Z,46.2
2019-04-07T22:15:15.390Z,45.7
2019-04-07T22:18:15.843Z,46.9
2019-04-07T22:21:15.686Z,45.9
2019-04-07T22:24:15.368Z,45.1
2019-04-07T22:27:20.356Z,45.5
2019-04-07T22:30:15.080Z,45.4
2019-04-07T22:33:15.829Z,46.1
2019-04-07T22:36:15.513Z,46.0
2019-04-07T22:39:15.186Z,45.9
2019-04-07T22:42:16.724Z,46.1
2019-04-07T22:45:15.568Z,47.8
2019-04-07T22:48:15.055Z,47.2
2019-04-07T22:51:15.111Z,46.6
2019-04-07T22:54:15.202Z,46.8
2019-04-07T22:57:15.797Z,46.6
2019-04-07T23:00:15.734Z,46.1
2019-04-07T23:03:15.830Z,46.3
2019-04-07T23:06:15.715Z,46.1
2019-04-07T23:09:15.910Z,45.9
2019-04-07T23:12:15.530Z,46.5
2019-04-07T23:15:16.523Z,46.5
2019-04-07T23:18:15.998Z,47.1
2019-04-07T23:21:15.407Z,46.5
2019-04-07T23:24:15.258Z,46.9
2019-04-07T23:27:15.525Z,47.0
2019-04-07T23:30:15.272Z,47.0
2019-04-07T23:33:15.687Z,46.8
2019-04-07T23:36:15.581Z,47.6
2019-04-07T23:39:15.702Z,47.8
2019-04-07T23:42:15.816Z,47.3
2019-04-07T23:45:16.582Z,47.6
2019-04-07T23:48:15.856Z,46.6
2019-04-07T23:51:16.474Z,46.5
2019-04-07T23:54:16.304Z,46.1
2019-04-07T23:57:15.634Z,46.1
